sensor_id;sensor_type;location;lat;lon;timestamp;temperature;humidity
52621;DHT22;38515;53.160;6.990;2023-12-20T00:00:36;5.20;99.90
52621;DHT22;38515;53.160;6.990;2023-12-20T00:03:03;6.90;99.90
52621;DHT22;38515;53.160;6.990;2023-12-20T00:05:29;5.30;99.90
52621;DHT22;38515;53.160;6.990;2023-12-20T00:07:57;5.30;99.90
52621;DHT22;38515;53.160;6.990;2023-12-20T00:10:23;5.10;99.90
52621;DHT22;38515;53.160;6.990;2023-12-20T00:12:49;5.10;99.90
52621;DHT22;38515;53.160;6.990;2023-12-20T00:15:14;6.70;99.90
52621;DHT22;38515;53.160;6.990;2023-12-20T00:17:40;4.80;99.90
52621;DHT22;38515;53.160;6.990;2023-12-20T00:20:06;4.90;99.90
52621;DHT22;38515;53.160;6.990;2023-12-20T00:22:32;4.90;99.90
52621;DHT22;38515;53.160;6.990;2023-12-20T00:24:58;5.60;99.90
52621;DHT22;38515;53.160;6.990;2023-12-20T00:27:23;6.50;99.90
52621;DHT22;38515;53.160;6.990;2023-12-20T00:29:49;4.50;99.90
52621;DHT22;38515;53.160;6.990;2023-12-20T00:32:16;5.00;99.90
52621;DHT22;38515;53.160;6.990;2023-12-20T00:34:42;4.70;99.90
52621;DHT22;38515;53.160;6.990;2023-12-20T00:37:08;4.80;99.90
52621;DHT22;38515;53.160;6.990;2023-12-20T00:39:34;6.30;99.90
52621;DHT22;38515;53.160;6.990;2023-12-20T00:41:59;5.10;99.90
52621;DHT22;38515;53.160;6.990;2023-12-20T00:44:25;4.80;99.90
52621;DHT22;38515;53.160;6.990;2023-12-20T00:46:51;6.40;99.90
52621;DHT22;38515;53.160;6.990;2023-12-20T00:49:17;5.30;99.90
52621;DHT22;38515;53.160;6.990;2023-12-20T00:51:43;4.40;99.90
52621;DHT22;38515;53.160;6.990;2023-12-20T00:54:08;4.70;99.90
52621;DHT22;38515;53.160;6.990;2023-12-20T00:56:35;4.80;99.90
52621;DHT22;38515;53.160;6.990;2023-12-20T00:59:00;4.60;99.90
52621;DHT22;38515;53.160;6.990;2023-12-20T01:01:26;5.50;99.90
52621;DHT22;38515;53.160;6.990;2023-12-20T01:03:52;5.00;99.90
52621;DHT22;38515;53.160;6.990;2023-12-20T01:06:18;4.90;99.90
52621;DHT22;38515;53.160;6.990;2023-12-20T01:08:44;5.00;99.90
52621;DHT22;38515;53.160;6.990;2023-12-20T01:11:10;5.00;99.90
52621;DHT22;38515;53.160;6.990;2023-12-20T01:13:36;5.00;99.90
52621;DHT22;38515;53.160;6.990;2023-12-20T01:16:01;5.00;99.90
52621;DHT22;38515;53.160;6.990;2023-12-20T01:18:27;5.00;99.90
52621;DHT22;38515;53.160;6.990;2023-12-20T01:20:53;5.00;99.90
52621;DHT22;38515;53.160;6.990;2023-12-20T01:23:19;5.40;99.90
52621;DHT22;38515;53.160;6.990;2023-12-20T01:25:44;5.10;99.90
52621;DHT22;38515;53.160;6.990;2023-12-20T01:28:10;5.00;99.90
52621;DHT22;38515;53.160;6.990;2023-12-20T01:30:36;4.20;99.90
52621;DHT22;38515;53.160;6.990;2023-12-20T01:33:01;5.90;99.90
52621;DHT22;38515;53.160;6.990;2023-12-20T01:35:27;5.30;99.90
52621;DHT22;38515;53.160;6.990;2023-12-20T01:37:53;5.30;99.90
52621;DHT22;38515;53.160;6.990;2023-12-20T01:40:22;5.20;99.90
52621;DHT22;38515;53.160;6.990;2023-12-20T01:43:01;5.30;99.90
52621;DHT22;38515;53.160;6.990;2023-12-20T01:45:26;5.20;99.90
52621;DHT22;38515;53.160;6.990;2023-12-20T01:47:53;4.90;99.90
52621;DHT22;38515;53.160;6.990;2023-12-20T01:50:20;5.40;99.90
52621;DHT22;38515;53.160;6.990;2023-12-20T01:52:46;5.70;99.90
52621;DHT22;38515;53.160;6.990;2023-12-20T01:55:12;5.90;99.90
52621;DHT22;38515;53.160;6.990;2023-12-20T01:57:43;5.80;99.90
52621;DHT22;38515;53.160;6.990;2023-12-20T02:00:11;5.20;99.90
52621;DHT22;38515;53.160;6.990;2023-12-20T02:02:40;5.30;99.90
52621;DHT22;38515;53.160;6.990;2023-12-20T02:05:07;5.30;99.90
52621;DHT22;38515;53.160;6.990;2023-12-20T02:07:32;5.40;99.90
52621;DHT22;38515;53.160;6.990;2023-12-20T02:10:02;6.70;99.90
52621;DHT22;38515;53.160;6.990;2023-12-20T02:12:27;5.40;99.90
52621;DHT22;38515;53.160;6.990;2023-12-20T02:14:53;6.20;99.90
52621;DHT22;38515;53.160;6.990;2023-12-20T02:17:20;6.10;99.90
52621;DHT22;38515;53.160;6.990;2023-12-20T02:19:45;5.90;99.90
52621;DHT22;38515;53.160;6.990;2023-12-20T02:22:11;7.20;99.90
52621;DHT22;38515;53.160;6.990;2023-12-20T02:24:37;5.50;99.90
52621;DHT22;38515;53.160;6.990;2023-12-20T02:27:06;6.30;99.90
52621;DHT22;38515;53.160;6.990;2023-12-20T02:29:36;5.70;99.90
52621;DHT22;38515;53.160;6.990;2023-12-20T02:32:02;5.50;99.90
52621;DHT22;38515;53.160;6.990;2023-12-20T02:34:28;5.60;99.90
52621;DHT22;38515;53.160;6.990;2023-12-20T02:36:54;6.70;99.90
52621;DHT22;38515;53.160;6.990;2023-12-20T02:39:21;5.50;99.90
52621;DHT22;38515;53.160;6.990;2023-12-20T02:41:48;7.00;99.90
52621;DHT22;38515;53.160;6.990;2023-12-20T02:44:14;5.40;99.90
52621;DHT22;38515;53.160;6.990;2023-12-20T02:46:39;5.20;99.90
52621;DHT22;38515;53.160;6.990;2023-12-20T02:49:06;5.40;99.90
52621;DHT22;38515;53.160;6.990;2023-12-20T02:51:31;5.60;99.90
52621;DHT22;38515;53.160;6.990;2023-12-20T02:53:57;5.20;99.90
52621;DHT22;38515;53.160;6.990;2023-12-20T02:56:23;5.40;99.90
52621;DHT22;38515;53.160;6.990;2023-12-20T02:58:49;5.60;99.90
52621;DHT22;38515;53.160;6.990;2023-12-20T03:01:14;5.30;99.90
52621;DHT22;38515;53.160;6.990;2023-12-20T03:03:40;6.30;99.90
52621;DHT22;38515;53.160;6.990;2023-12-20T03:06:05;5.30;99.90
52621;DHT22;38515;53.160;6.990;2023-12-20T03:08:31;5.40;99.90
52621;DHT22;38515;53.160;6.990;2023-12-20T03:10:59;6.60;99.90
52621;DHT22;38515;53.160;6.990;2023-12-20T03:13:25;5.60;99.90
52621;DHT22;38515;53.160;6.990;2023-12-20T03:15:50;5.10;99.90
52621;DHT22;38515;53.160;6.990;2023-12-20T03:18:16;5.90;99.90
52621;DHT22;38515;53.160;6.990;2023-12-20T03:20:42;5.50;99.90
52621;DHT22;38515;53.160;6.990;2023-12-20T03:23:07;5.00;99.90
52621;DHT22;38515;53.160;6.990;2023-12-20T03:25:33;5.40;99.90
52621;DHT22;38515;53.160;6.990;2023-12-20T03:27:59;5.40;99.90
52621;DHT22;38515;53.160;6.990;2023-12-20T03:30:25;5.30;99.90
52621;DHT22;38515;53.160;6.990;2023-12-20T03:32:51;5.30;99.90
52621;DHT22;38515;53.160;6.990;2023-12-20T03:35:17;6.10;99.90
52621;DHT22;38515;53.160;6.990;2023-12-20T03:37:43;5.40;99.90
52621;DHT22;38515;53.160;6.990;2023-12-20T03:40:09;5.60;99.90
52621;DHT22;38515;53.160;6.990;2023-12-20T03:42:34;5.20;99.90
52621;DHT22;38515;53.160;6.990;2023-12-20T03:45:00;5.20;99.90
52621;DHT22;38515;53.160;6.990;2023-12-20T03:47:26;4.70;99.90
52621;DHT22;38515;53.160;6.990;2023-12-20T03:49:52;5.60;99.90
52621;DHT22;38515;53.160;6.990;2023-12-20T03:52:18;5.50;99.90
52621;DHT22;38515;53.160;6.990;2023-12-20T03:54:44;5.50;99.90
52621;DHT22;38515;53.160;6.990;2023-12-20T03:57:09;5.60;99.90
52621;DHT22;38515;53.160;6.990;2023-12-20T03:59:37;6.60;99.90
52621;DHT22;38515;53.160;6.990;2023-12-20T04:02:03;7.40;99.90
52621;DHT22;38515;53.160;6.990;2023-12-20T04:04:30;5.80;99.90
52621;DHT22;38515;53.160;6.990;2023-12-20T04:06:55;7.40;99.90
52621;DHT22;38515;53.160;6.990;2023-12-20T04:09:21;5.80;99.90
52621;DHT22;38515;53.160;6.990;2023-12-20T04:11:46;5.70;99.90
52621;DHT22;38515;53.160;6.990;2023-12-20T04:14:12;5.80;99.90
52621;DHT22;38515;53.160;6.990;2023-12-20T04:16:38;6.30;99.90
52621;DHT22;38515;53.160;6.990;2023-12-20T04:19:04;5.70;99.90
52621;DHT22;38515;53.160;6.990;2023-12-20T04:21:30;6.60;99.90
52621;DHT22;38515;53.160;6.990;2023-12-20T04:23:56;6.90;99.90
52621;DHT22;38515;53.160;6.990;2023-12-20T04:26:21;4.90;99.90
52621;DHT22;38515;53.160;6.990;2023-12-20T04:28:47;6.60;99.90
52621;DHT22;38515;53.160;6.990;2023-12-20T04:31:13;6.20;99.90
52621;DHT22;38515;53.160;6.990;2023-12-20T04:33:39;5.40;99.90
52621;DHT22;38515;53.160;6.990;2023-12-20T04:36:04;5.70;99.90
52621;DHT22;38515;53.160;6.990;2023-12-20T04:38:30;6.50;99.90
52621;DHT22;38515;53.160;6.990;2023-12-20T04:40:56;6.00;99.90
52621;DHT22;38515;53.160;6.990;2023-12-20T04:43:21;6.40;99.90
52621;DHT22;38515;53.160;6.990;2023-12-20T04:45:47;5.20;99.90
52621;DHT22;38515;53.160;6.990;2023-12-20T04:48:15;5.60;99.90
52621;DHT22;38515;53.160;6.990;2023-12-20T04:50:41;6.20;99.90
52621;DHT22;38515;53.160;6.990;2023-12-20T04:53:07;5.60;99.90
52621;DHT22;38515;53.160;6.990;2023-12-20T04:55:33;6.90;99.90
52621;DHT22;38515;53.160;6.990;2023-12-20T04:57:58;5.80;99.90
52621;DHT22;38515;53.160;6.990;2023-12-20T05:00:24;6.00;99.90
52621;DHT22;38515;53.160;6.990;2023-12-20T05:02:50;5.90;99.90
52621;DHT22;38515;53.160;6.990;2023-12-20T05:07:43;6.00;99.90
52621;DHT22;38515;53.160;6.990;2023-12-20T05:10:09;6.20;99.90
52621;DHT22;38515;53.160;6.990;2023-12-20T05:12:35;6.50;99.90
52621;DHT22;38515;53.160;6.990;2023-12-20T05:15:01;6.20;99.90
52621;DHT22;38515;53.160;6.990;2023-12-20T05:17:26;6.20;99.90
52621;DHT22;38515;53.160;6.990;2023-12-20T05:19:52;6.20;99.90
52621;DHT22;38515;53.160;6.990;2023-12-20T05:22:19;6.30;16.30
52621;DHT22;38515;53.160;6.990;2023-12-20T05:24:45;6.40;1.00
52621;DHT22;38515;53.160;6.990;2023-12-20T05:27:11;7.00;1.00
52621;DHT22;38515;53.160;6.990;2023-12-20T05:29:37;6.30;1.00
52621;DHT22;38515;53.160;6.990;2023-12-20T05:32:03;6.40;76.30
52621;DHT22;38515;53.160;6.990;2023-12-20T05:34:30;6.30;25.40
52621;DHT22;38515;53.160;6.990;2023-12-20T05:36:57;6.50;4.30
52621;DHT22;38515;53.160;6.990;2023-12-20T05:39:23;6.70;99.90
52621;DHT22;38515;53.160;6.990;2023-12-20T05:41:48;6.60;99.90
52621;DHT22;38515;53.160;6.990;2023-12-20T05:44:14;6.40;99.90
52621;DHT22;38515;53.160;6.990;2023-12-20T05:46:40;6.60;99.90
52621;DHT22;38515;53.160;6.990;2023-12-20T05:49:06;8.00;99.90
52621;DHT22;38515;53.160;6.990;2023-12-20T05:51:31;6.40;99.90
52621;DHT22;38515;53.160;6.990;2023-12-20T05:53:58;6.50;99.90
52621;DHT22;38515;53.160;6.990;2023-12-20T05:56:24;6.50;15.10
52621;DHT22;38515;53.160;6.990;2023-12-20T05:58:49;6.50;1.00
52621;DHT22;38515;53.160;6.990;2023-12-20T06:01:15;6.70;1.00
52621;DHT22;38515;53.160;6.990;2023-12-20T06:03:42;6.50;99.90
52621;DHT22;38515;53.160;6.990;2023-12-20T06:06:09;6.50;99.90
52621;DHT22;38515;53.160;6.990;2023-12-20T06:08:35;6.60;99.90
52621;DHT22;38515;53.160;6.990;2023-12-20T06:11:01;6.30;99.90
52621;DHT22;38515;53.160;6.990;2023-12-20T06:13:27;6.60;1.00
52621;DHT22;38515;53.160;6.990;2023-12-20T06:15:54;6.70;99.90
52621;DHT22;38515;53.160;6.990;2023-12-20T06:18:20;6.60;1.00
52621;DHT22;38515;53.160;6.990;2023-12-20T06:20:46;6.90;99.90
52621;DHT22;38515;53.160;6.990;2023-12-20T06:23:11;6.60;99.90
52621;DHT22;38515;53.160;6.990;2023-12-20T06:25:37;6.90;99.90
52621;DHT22;38515;53.160;6.990;2023-12-20T06:28:03;7.30;47.70
52621;DHT22;38515;53.160;6.990;2023-12-20T06:30:28;6.60;99.90
52621;DHT22;38515;53.160;6.990;2023-12-20T06:32:54;6.60;1.00
52621;DHT22;38515;53.160;6.990;2023-12-20T06:37:49;6.60;99.90
52621;DHT22;38515;53.160;6.990;2023-12-20T06:40:15;6.90;99.90
52621;DHT22;38515;53.160;6.990;2023-12-20T06:42:41;7.70;99.90
52621;DHT22;38515;53.160;6.990;2023-12-20T06:45:08;6.90;99.90
52621;DHT22;38515;53.160;6.990;2023-12-20T06:47:33;6.70;99.90
52621;DHT22;38515;53.160;6.990;2023-12-20T06:49:59;8.00;99.90
52621;DHT22;38515;53.160;6.990;2023-12-20T06:52:26;6.70;99.90
52621;DHT22;38515;53.160;6.990;2023-12-20T06:54:51;6.80;1.00
52621;DHT22;38515;53.160;6.990;2023-12-20T06:57:17;6.40;99.90
52621;DHT22;38515;53.160;6.990;2023-12-20T06:59:43;6.60;99.90
52621;DHT22;38515;53.160;6.990;2023-12-20T07:02:10;6.70;99.90
52621;DHT22;38515;53.160;6.990;2023-12-20T07:04:39;6.70;99.90
52621;DHT22;38515;53.160;6.990;2023-12-20T07:07:05;6.70;1.00
52621;DHT22;38515;53.160;6.990;2023-12-20T07:09:33;6.70;1.00
52621;DHT22;38515;53.160;6.990;2023-12-20T07:11:59;7.80;70.40
52621;DHT22;38515;53.160;6.990;2023-12-20T07:14:24;6.70;1.00
52621;DHT22;38515;53.160;6.990;2023-12-20T07:16:50;6.70;99.90
52621;DHT22;38515;53.160;6.990;2023-12-20T07:19:16;6.70;99.90
52621;DHT22;38515;53.160;6.990;2023-12-20T07:21:42;6.80;99.90
52621;DHT22;38515;53.160;6.990;2023-12-20T07:24:08;6.70;99.90
52621;DHT22;38515;53.160;6.990;2023-12-20T07:26:34;6.80;76.40
52621;DHT22;38515;53.160;6.990;2023-12-20T07:29:00;6.90;99.90
52621;DHT22;38515;53.160;6.990;2023-12-20T07:31:25;6.90;1.00
52621;DHT22;38515;53.160;6.990;2023-12-20T07:33:51;6.50;99.90
52621;DHT22;38515;53.160;6.990;2023-12-20T07:36:17;6.90;76.60
52621;DHT22;38515;53.160;6.990;2023-12-20T07:38:42;8.40;31.40
52621;DHT22;38515;53.160;6.990;2023-12-20T07:41:10;8.40;99.90
52621;DHT22;38515;53.160;6.990;2023-12-20T07:43:36;7.20;33.00
52621;DHT22;38515;53.160;6.990;2023-12-20T07:46:06;7.00;99.90
52621;DHT22;38515;53.160;6.990;2023-12-20T07:48:34;6.90;99.90
52621;DHT22;38515;53.160;6.990;2023-12-20T07:50:59;7.70;52.30
52621;DHT22;38515;53.160;6.990;2023-12-20T07:53:25;7.20;99.90
52621;DHT22;38515;53.160;6.990;2023-12-20T07:55:51;8.20;1.00
52621;DHT22;38515;53.160;6.990;2023-12-20T07:58:18;7.10;99.90
52621;DHT22;38515;53.160;6.990;2023-12-20T08:00:44;7.10;1.00
52621;DHT22;38515;53.160;6.990;2023-12-20T08:03:09;7.40;99.90
52621;DHT22;38515;53.160;6.990;2023-12-20T08:05:35;7.10;1.00
52621;DHT22;38515;53.160;6.990;2023-12-20T08:08:01;7.30;99.90
52621;DHT22;38515;53.160;6.990;2023-12-20T08:10:27;7.40;25.90
52621;DHT22;38515;53.160;6.990;2023-12-20T08:12:55;8.20;1.00
52621;DHT22;38515;53.160;6.990;2023-12-20T08:15:20;7.30;55.00
52621;DHT22;38515;53.160;6.990;2023-12-20T08:17:46;8.70;29.90
52621;DHT22;38515;53.160;6.990;2023-12-20T08:20:12;7.90;1.00
52621;DHT22;38515;53.160;6.990;2023-12-20T08:22:38;7.10;24.60
52621;DHT22;38515;53.160;6.990;2023-12-20T08:25:04;7.50;1.00
52621;DHT22;38515;53.160;6.990;2023-12-20T08:27:29;7.50;99.90
52621;DHT22;38515;53.160;6.990;2023-12-20T08:29:57;7.50;99.90
52621;DHT22;38515;53.160;6.990;2023-12-20T08:32:25;7.60;99.90
52621;DHT22;38515;53.160;6.990;2023-12-20T08:34:52;7.60;1.00
52621;DHT22;38515;53.160;6.990;2023-12-20T08:37:17;7.60;95.40
52621;DHT22;38515;53.160;6.990;2023-12-20T08:39:43;7.60;1.00
52621;DHT22;38515;53.160;6.990;2023-12-20T08:42:09;7.70;99.90
52621;DHT22;38515;53.160;6.990;2023-12-20T08:44:35;7.70;99.90
52621;DHT22;38515;53.160;6.990;2023-12-20T08:47:01;7.70;99.90
52621;DHT22;38515;53.160;6.990;2023-12-20T08:49:27;7.80;1.00
52621;DHT22;38515;53.160;6.990;2023-12-20T08:51:53;8.90;99.90
52621;DHT22;38515;53.160;6.990;2023-12-20T08:54:19;8.20;99.90
52621;DHT22;38515;53.160;6.990;2023-12-20T08:56:45;7.50;99.90
52621;DHT22;38515;53.160;6.990;2023-12-20T08:59:11;6.80;99.90
52621;DHT22;38515;53.160;6.990;2023-12-20T09:01:37;6.10;99.90
52621;DHT22;38515;53.160;6.990;2023-12-20T09:04:03;5.80;99.90
52621;DHT22;38515;53.160;6.990;2023-12-20T09:06:29;5.40;99.90
52621;DHT22;38515;53.160;6.990;2023-12-20T09:08:54;4.90;96.60
52621;DHT22;38515;53.160;6.990;2023-12-20T09:11:20;5.20;99.90
52621;DHT22;38515;53.160;6.990;2023-12-20T09:13:46;6.70;1.00
52621;DHT22;38515;53.160;6.990;2023-12-20T09:16:12;5.00;99.90
52621;DHT22;38515;53.160;6.990;2023-12-20T09:18:39;4.00;1.00
52621;DHT22;38515;53.160;6.990;2023-12-20T09:21:04;6.70;99.90
52621;DHT22;38515;53.160;6.990;2023-12-20T09:23:30;5.00;1.00
52621;DHT22;38515;53.160;6.990;2023-12-20T09:25:56;6.00;99.90
52621;DHT22;38515;53.160;6.990;2023-12-20T09:28:21;4.80;1.00
52621;DHT22;38515;53.160;6.990;2023-12-20T09:30:47;5.00;99.90
52621;DHT22;38515;53.160;6.990;2023-12-20T09:33:13;3.70;61.20
52621;DHT22;38515;53.160;6.990;2023-12-20T09:35:39;4.40;92.70
52621;DHT22;38515;53.160;6.990;2023-12-20T09:38:05;5.50;91.10
52621;DHT22;38515;53.160;6.990;2023-12-20T09:40:32;6.20;6.90
52621;DHT22;38515;53.160;6.990;2023-12-20T09:45:27;7.00;99.90
52621;DHT22;38515;53.160;6.990;2023-12-20T09:47:54;5.30;99.90
52621;DHT22;38515;53.160;6.990;2023-12-20T09:50:21;5.10;99.90
52621;DHT22;38515;53.160;6.990;2023-12-20T09:52:51;5.20;1.00
52621;DHT22;38515;53.160;6.990;2023-12-20T09:55:18;5.30;1.00
52621;DHT22;38515;53.160;6.990;2023-12-20T09:57:48;5.40;1.00
52621;DHT22;38515;53.160;6.990;2023-12-20T10:00:14;7.40;99.90
52621;DHT22;38515;53.160;6.990;2023-12-20T10:02:55;6.00;1.00
52621;DHT22;38515;53.160;6.990;2023-12-20T10:05:27;4.50;1.00
52621;DHT22;38515;53.160;6.990;2023-12-20T10:07:52;5.40;99.90
52621;DHT22;38515;53.160;6.990;2023-12-20T10:10:18;4.40;99.90
52621;DHT22;38515;53.160;6.990;2023-12-20T10:13:05;5.50;1.00
52621;DHT22;38515;53.160;6.990;2023-12-20T10:15:35;5.70;99.90
52621;DHT22;38515;53.160;6.990;2023-12-20T10:18:01;5.50;99.90
52621;DHT22;38515;53.160;6.990;2023-12-20T10:20:28;5.50;1.00
52621;DHT22;38515;53.160;6.990;2023-12-20T10:23:00;5.50;99.90
52621;DHT22;38515;53.160;6.990;2023-12-20T10:25:26;5.10;99.90
52621;DHT22;38515;53.160;6.990;2023-12-20T10:30:37;5.40;99.90
52621;DHT22;38515;53.160;6.990;2023-12-20T10:33:05;6.00;99.90
52621;DHT22;38515;53.160;6.990;2023-12-20T10:35:31;5.70;64.80
52621;DHT22;38515;53.160;6.990;2023-12-20T10:37:58;7.00;1.00
52621;DHT22;38515;53.160;6.990;2023-12-20T10:40:27;7.90;14.70
52621;DHT22;38515;53.160;6.990;2023-12-20T10:42:55;5.30;99.90
52621;DHT22;38515;53.160;6.990;2023-12-20T10:45:22;7.20;55.50
52621;DHT22;38515;53.160;6.990;2023-12-20T10:47:49;6.10;1.00
52621;DHT22;38515;53.160;6.990;2023-12-20T10:50:15;6.80;99.90
52621;DHT22;38515;53.160;6.990;2023-12-20T10:52:41;6.40;99.90
52621;DHT22;38515;53.160;6.990;2023-12-20T10:55:08;6.90;1.00
52621;DHT22;38515;53.160;6.990;2023-12-20T10:57:36;6.90;99.90
52621;DHT22;38515;53.160;6.990;2023-12-20T11:00:03;7.10;1.00
52621;DHT22;38515;53.160;6.990;2023-12-20T11:02:32;7.20;99.90
52621;DHT22;38515;53.160;6.990;2023-12-20T11:07:55;7.20;99.90
52621;DHT22;38515;53.160;6.990;2023-12-20T11:11:05;7.10;1.00
52621;DHT22;38515;53.160;6.990;2023-12-20T11:13:55;7.20;1.00
52621;DHT22;38515;53.160;6.990;2023-12-20T11:16:22;7.80;1.00
52621;DHT22;38515;53.160;6.990;2023-12-20T11:18:50;7.50;1.00
52621;DHT22;38515;53.160;6.990;2023-12-20T11:21:16;7.00;1.00
52621;DHT22;38515;53.160;6.990;2023-12-20T11:23:42;7.00;99.90
52621;DHT22;38515;53.160;6.990;2023-12-20T11:26:08;7.00;99.90
52621;DHT22;38515;53.160;6.990;2023-12-20T11:28:34;6.80;1.00
52621;DHT22;38515;53.160;6.990;2023-12-20T11:31:01;6.60;99.90
52621;DHT22;38515;53.160;6.990;2023-12-20T11:33:46;6.60;1.00
52621;DHT22;38515;53.160;6.990;2023-12-20T11:36:19;6.40;99.90
52621;DHT22;38515;53.160;6.990;2023-12-20T11:38:57;7.60;22.90
52621;DHT22;38515;53.160;6.990;2023-12-20T11:41:23;6.60;99.90
52621;DHT22;38515;53.160;6.990;2023-12-20T11:43:56;6.30;99.90
52621;DHT22;38515;53.160;6.990;2023-12-20T11:46:22;6.30;99.90
52621;DHT22;38515;53.160;6.990;2023-12-20T11:48:48;6.30;99.90
52621;DHT22;38515;53.160;6.990;2023-12-20T11:51:14;6.70;99.90
52621;DHT22;38515;53.160;6.990;2023-12-20T11:53:41;6.30;1.00
52621;DHT22;38515;53.160;6.990;2023-12-20T11:56:10;7.20;1.00
52621;DHT22;38515;53.160;6.990;2023-12-20T11:58:36;6.30;1.00
52621;DHT22;38515;53.160;6.990;2023-12-20T12:01:02;6.50;99.90
52621;DHT22;38515;53.160;6.990;2023-12-20T12:03:28;6.60;99.90
52621;DHT22;38515;53.160;6.990;2023-12-20T12:05:53;7.30;1.00
52621;DHT22;38515;53.160;6.990;2023-12-20T12:08:19;6.90;1.00
52621;DHT22;38515;53.160;6.990;2023-12-20T12:10:45;8.60;1.00
52621;DHT22;38515;53.160;6.990;2023-12-20T12:13:11;7.90;1.00
52621;DHT22;38515;53.160;6.990;2023-12-20T12:15:37;7.90;1.00
52621;DHT22;38515;53.160;6.990;2023-12-20T12:18:03;8.50;1.00
52621;DHT22;38515;53.160;6.990;2023-12-20T12:20:29;6.90;99.90
52621;DHT22;38515;53.160;6.990;2023-12-20T12:23:00;7.00;99.90
52621;DHT22;38515;53.160;6.990;2023-12-20T12:25:26;6.80;99.90
52621;DHT22;38515;53.160;6.990;2023-12-20T12:27:52;6.60;1.00
52621;DHT22;38515;53.160;6.990;2023-12-20T12:30:18;6.70;99.90
52621;DHT22;38515;53.160;6.990;2023-12-20T12:32:44;7.90;1.00
52621;DHT22;38515;53.160;6.990;2023-12-20T12:35:10;7.30;99.90
52621;DHT22;38515;53.160;6.990;2023-12-20T12:37:38;7.00;99.90
52621;DHT22;38515;53.160;6.990;2023-12-20T12:40:13;6.80;99.90
52621;DHT22;38515;53.160;6.990;2023-12-20T12:42:40;6.80;99.90
52621;DHT22;38515;53.160;6.990;2023-12-20T12:45:07;6.80;99.90
52621;DHT22;38515;53.160;6.990;2023-12-20T12:47:34;6.80;99.90
52621;DHT22;38515;53.160;6.990;2023-12-20T12:49:59;6.80;99.90
52621;DHT22;38515;53.160;6.990;2023-12-20T12:52:25;6.80;1.00
52621;DHT22;38515;53.160;6.990;2023-12-20T12:54:52;7.00;1.00
52621;DHT22;38515;53.160;6.990;2023-12-20T12:57:19;6.80;94.20
52621;DHT22;38515;53.160;6.990;2023-12-20T12:59:45;7.00;1.00
52621;DHT22;38515;53.160;6.990;2023-12-20T13:02:14;7.10;99.90
52621;DHT22;38515;53.160;6.990;2023-12-20T13:04:43;7.10;99.90
52621;DHT22;38515;53.160;6.990;2023-12-20T13:07:09;7.00;99.90
52621;DHT22;38515;53.160;6.990;2023-12-20T13:09:36;7.00;1.00
52621;DHT22;38515;53.160;6.990;2023-12-20T13:12:02;7.00;29.50
52621;DHT22;38515;53.160;6.990;2023-12-20T13:14:35;7.10;99.90
52621;DHT22;38515;53.160;6.990;2023-12-20T13:17:04;7.80;99.90
52621;DHT22;38515;53.160;6.990;2023-12-20T13:19:30;8.60;99.90
52621;DHT22;38515;53.160;6.990;2023-12-20T13:21:56;7.10;99.90
52621;DHT22;38515;53.160;6.990;2023-12-20T13:24:22;7.00;99.90
52621;DHT22;38515;53.160;6.990;2023-12-20T13:26:47;7.60;99.90
52621;DHT22;38515;53.160;6.990;2023-12-20T13:29:13;7.20;1.00
52621;DHT22;38515;53.160;6.990;2023-12-20T13:31:39;7.80;99.90
52621;DHT22;38515;53.160;6.990;2023-12-20T13:34:06;7.00;99.90
52621;DHT22;38515;53.160;6.990;2023-12-20T13:36:31;8.10;99.90
52621;DHT22;38515;53.160;6.990;2023-12-20T13:38:57;7.60;99.90
52621;DHT22;38515;53.160;6.990;2023-12-20T13:41:23;7.10;24.00
52621;DHT22;38515;53.160;6.990;2023-12-20T13:43:48;7.10;1.00
52621;DHT22;38515;53.160;6.990;2023-12-20T13:46:14;7.10;1.00
52621;DHT22;38515;53.160;6.990;2023-12-20T13:48:40;8.60;1.00
52621;DHT22;38515;53.160;6.990;2023-12-20T13:51:05;6.90;1.00
52621;DHT22;38515;53.160;6.990;2023-12-20T13:53:32;6.80;1.00
52621;DHT22;38515;53.160;6.990;2023-12-20T13:55:57;7.30;99.90
52621;DHT22;38515;53.160;6.990;2023-12-20T13:58:23;7.10;43.10
52621;DHT22;38515;53.160;6.990;2023-12-20T14:00:49;6.70;1.00
52621;DHT22;38515;53.160;6.990;2023-12-20T14:03:14;6.70;1.00
52621;DHT22;38515;53.160;6.990;2023-12-20T14:05:40;6.70;99.90
52621;DHT22;38515;53.160;6.990;2023-12-20T14:08:06;6.60;99.90
52621;DHT22;38515;53.160;6.990;2023-12-20T14:10:33;7.40;1.00
52621;DHT22;38515;53.160;6.990;2023-12-20T14:12:58;6.50;1.00
52621;DHT22;38515;53.160;6.990;2023-12-20T14:15:24;7.90;1.00
52621;DHT22;38515;53.160;6.990;2023-12-20T14:17:50;7.10;99.90
52621;DHT22;38515;53.160;6.990;2023-12-20T14:20:16;6.50;99.90
52621;DHT22;38515;53.160;6.990;2023-12-20T14:22:43;6.80;1.00
52621;DHT22;38515;53.160;6.990;2023-12-20T14:25:12;6.30;58.60
52621;DHT22;38515;53.160;6.990;2023-12-20T14:27:39;6.50;14.70
52621;DHT22;38515;53.160;6.990;2023-12-20T14:30:06;6.40;99.90
52621;DHT22;38515;53.160;6.990;2023-12-20T14:32:34;6.40;99.90
52621;DHT22;38515;53.160;6.990;2023-12-20T14:34:59;6.40;8.90
52621;DHT22;38515;53.160;6.990;2023-12-20T14:37:25;7.00;99.90
52621;DHT22;38515;53.160;6.990;2023-12-20T14:39:51;6.30;99.90
52621;DHT22;38515;53.160;6.990;2023-12-20T14:42:16;6.30;42.20
52621;DHT22;38515;53.160;6.990;2023-12-20T14:44:43;6.30;99.90
52621;DHT22;38515;53.160;6.990;2023-12-20T14:47:08;6.20;99.90
52621;DHT22;38515;53.160;6.990;2023-12-20T14:49:34;6.40;99.90
52621;DHT22;38515;53.160;6.990;2023-12-20T14:52:02;7.70;99.90
52621;DHT22;38515;53.160;6.990;2023-12-20T14:54:27;6.20;99.90
52621;DHT22;38515;53.160;6.990;2023-12-20T14:56:53;6.10;89.60
52621;DHT22;38515;53.160;6.990;2023-12-20T14:59:19;6.20;1.00
52621;DHT22;38515;53.160;6.990;2023-12-20T15:01:44;6.10;99.90
52621;DHT22;38515;53.160;6.990;2023-12-20T15:04:10;7.90;53.90
52621;DHT22;38515;53.160;6.990;2023-12-20T15:06:36;6.10;1.00
52621;DHT22;38515;53.160;6.990;2023-12-20T15:09:02;6.10;99.90
52621;DHT22;38515;53.160;6.990;2023-12-20T15:11:30;6.80;1.00
52621;DHT22;38515;53.160;6.990;2023-12-20T15:13:57;6.30;99.90
52621;DHT22;38515;53.160;6.990;2023-12-20T15:16:23;6.00;99.90
52621;DHT22;38515;53.160;6.990;2023-12-20T15:18:49;6.00;99.90
52621;DHT22;38515;53.160;6.990;2023-12-20T15:21:16;5.90;99.90
52621;DHT22;38515;53.160;6.990;2023-12-20T15:23:42;5.90;99.90
52621;DHT22;38515;53.160;6.990;2023-12-20T15:26:21;5.90;1.00
52621;DHT22;38515;53.160;6.990;2023-12-20T15:28:47;5.90;1.00
52621;DHT22;38515;53.160;6.990;2023-12-20T15:31:13;5.90;99.90
52621;DHT22;38515;53.160;6.990;2023-12-20T15:33:39;6.20;99.90
52621;DHT22;38515;53.160;6.990;2023-12-20T15:36:05;5.90;99.90
52621;DHT22;38515;53.160;6.990;2023-12-20T15:38:31;5.80;1.00
52621;DHT22;38515;53.160;6.990;2023-12-20T15:40:57;5.80;1.00
52621;DHT22;38515;53.160;6.990;2023-12-20T15:43:22;6.30;1.00
52621;DHT22;38515;53.160;6.990;2023-12-20T15:45:48;6.70;99.90
52621;DHT22;38515;53.160;6.990;2023-12-20T15:48:14;7.00;99.90
52621;DHT22;38515;53.160;6.990;2023-12-20T15:50:44;5.70;77.70
52621;DHT22;38515;53.160;6.990;2023-12-20T15:53:10;5.90;99.90
52621;DHT22;38515;53.160;6.990;2023-12-20T15:55:35;5.70;1.00
52621;DHT22;38515;53.160;6.990;2023-12-20T15:58:01;5.70;99.90